Time;durP1;ratioP1;P1;durP2;ratioP2;P2;SDS_P1;SDS_P2;PMS_P1;PMS_P2;Temp;Humidity;BMP_temperature;BMP_pressure;BME280_temperature;BME280_humidity;BME280_pressure;Samples;Min_cycle;Max_cycle;Signal;HPM_P1;HPM_P2
2024/01/03 00:01:59;;;;;;;5.35;0.73;;;;;;;;;;5088175;28;20047;-67
2024/01/03 00:04:27;;;;;;;5.95;0.70;;;;;;;;;;5073873;28;20032;-67
2024/01/03 00:06:52;;;;;;;1.77;0.47;;;;;;;;;;5074041;28;20043;-66
2024/01/03 00:09:17;;;;;;;5.55;1.05;;;;;;;;;;5092093;28;20032;-66
2024/01/03 00:11:45;;;;;;;10.65;1.77;;;;;;;;;;5092426;28;20055;-65
2024/01/03 00:14:25;;;;;;;9.88;1.08;;;;;;;;;;5073931;28;20489;-66
2024/01/03 00:16:50;;;;;;;12.43;1.17;;;;;;;;;;5089529;28;20480;-66
2024/01/03 00:19:20;;;;;;;5.25;0.93;;;;;;;;;;5091368;28;20043;-66
2024/01/03 00:21:46;;;;;;;3.72;1.10;;;;;;;;;;5092179;28;20058;-67
2024/01/03 00:24:14;;;;;;;9.30;2.40;;;;;;;;;;5072999;28;20032;-66
2024/01/03 00:26:40;;;;;;;11.57;2.95;;;;;;;;;;5092043;28;20043;-66
2024/01/03 00:29:25;;;;;;;10.75;2.55;;;;;;;;;;5073477;28;20044;-66
2024/01/03 00:31:51;;;;;;;19.33;3.05;;;;;;;;;;5073311;28;20075;-66
2024/01/03 00:34:36;;;;;;;19.30;2.33;;;;;;;;;;5091689;28;20609;-66
2024/01/03 00:37:16;;;;;;;14.00;2.78;;;;;;;;;;5092024;28;20035;-67
2024/01/03 00:39:41;;;;;;;12.23;1.67;;;;;;;;;;5090612;28;20047;-66
2024/01/03 00:42:06;;;;;;;13.18;1.80;;;;;;;;;;5091265;28;20834;-66
2024/01/03 00:44:31;;;;;;;8.60;1.48;;;;;;;;;;5091531;28;20047;-66
2024/01/03 00:46:57;;;;;;;12.25;2.72;;;;;;;;;;5090662;28;20027;-67
2024/01/03 00:49:24;;;;;;;11.57;2.30;;;;;;;;;;5090989;28;20471;-66
2024/01/03 00:51:50;;;;;;;27.10;2.30;;;;;;;;;;5091567;28;20115;-66
2024/01/03 00:54:16;;;;;;;18.27;3.13;;;;;;;;;;5091178;28;20090;-66
2024/01/03 00:56:43;;;;;;;11.90;1.83;;;;;;;;;;5073454;28;20059;-65
2024/01/03 00:59:09;;;;;;;14.60;1.88;;;;;;;;;;5070591;28;20078;-66
2024/01/03 01:01:34;;;;;;;19.73;2.75;;;;;;;;;;5089070;28;20055;-66
2024/01/03 01:03:59;;;;;;;14.48;2.45;;;;;;;;;;5088829;28;20462;-66
2024/01/03 01:06:25;;;;;;;15.77;1.95;;;;;;;;;;5091727;28;20093;-66
2024/01/03 01:08:50;;;;;;;19.05;2.50;;;;;;;;;;5090921;28;20028;-66
2024/01/03 01:11:15;;;;;;;22.80;2.80;;;;;;;;;;5091234;28;20040;-66
2024/01/03 01:13:41;;;;;;;18.80;2.13;;;;;;;;;;5090626;28;20036;-66
2024/01/03 01:16:06;;;;;;;9.75;1.60;;;;;;;;;;5089800;28;20042;-67
2024/01/03 01:18:31;;;;;;;27.00;3.63;;;;;;;;;;5089151;28;20149;-66
2024/01/03 01:20:56;;;;;;;12.05;1.42;;;;;;;;;;5090679;28;20110;-67
2024/01/03 01:23:22;;;;;;;16.88;2.13;;;;;;;;;;5090973;28;20131;-67
2024/01/03 01:25:47;;;;;;;7.60;1.63;;;;;;;;;;5090354;28;20054;-66
2024/01/03 01:28:12;;;;;;;8.10;1.30;;;;;;;;;;5091039;28;20115;-66
2024/01/03 01:30:38;;;;;;;17.08;2.15;;;;;;;;;;5090675;28;20036;-67
2024/01/03 01:33:03;;;;;;;16.02;2.47;;;;;;;;;;5090218;28;20032;-66
2024/01/03 01:35:29;;;;;;;10.73;2.50;;;;;;;;;;5090429;28;20044;-66
2024/01/03 01:37:54;;;;;;;12.55;2.20;;;;;;;;;;5090813;28;20085;-66
2024/01/03 01:40:19;;;;;;;11.18;1.58;;;;;;;;;;5089871;28;20036;-66
2024/01/03 01:42:45;;;;;;;15.05;1.65;;;;;;;;;;5089862;28;20040;-66
2024/01/03 01:45:10;;;;;;;8.13;1.52;;;;;;;;;;5090240;28;20664;-66
2024/01/03 01:47:37;;;;;;;16.45;1.73;;;;;;;;;;5089870;28;20036;-66
2024/01/03 01:50:03;;;;;;;17.17;2.00;;;;;;;;;;5072229;28;20065;-65
2024/01/03 01:52:28;;;;;;;8.77;1.88;;;;;;;;;;5089813;28;20119;-66
2024/01/03 01:54:53;;;;;;;14.15;1.85;;;;;;;;;;5072546;28;20036;-66
2024/01/03 01:57:19;;;;;;;6.95;1.08;;;;;;;;;;5083998;28;20043;-67
2024/01/03 01:59:46;;;;;;;8.55;1.10;;;;;;;;;;5090314;28;20052;-66
2024/01/03 02:02:11;;;;;;;10.27;1.02;;;;;;;;;;5068448;28;20119;-66
2024/01/03 02:04:37;;;;;;;10.18;1.50;;;;;;;;;;5090024;28;20111;-66
2024/01/03 02:07:04;;;;;;;8.90;1.15;;;;;;;;;;5090427;28;20677;-66
2024/01/03 02:09:29;;;;;;;15.25;1.20;;;;;;;;;;5072215;28;20032;-66
2024/01/03 02:11:54;;;;;;;17.35;1.80;;;;;;;;;;5090079;28;20093;-66
2024/01/03 02:14:20;;;;;;;16.55;1.67;;;;;;;;;;5088389;28;20028;-66
2024/01/03 02:16:45;;;;;;;10.15;1.42;;;;;;;;;;5088075;28;20656;-66
2024/01/03 02:19:10;;;;;;;7.38;1.02;;;;;;;;;;5088168;28;20047;-66
2024/01/03 02:21:36;;;;;;;8.68;1.92;;;;;;;;;;5088839;28;20036;-66
2024/01/03 02:24:01;;;;;;;10.00;1.55;;;;;;;;;;5086049;28;20038;-65
2024/01/03 02:26:26;;;;;;;11.20;1.30;;;;;;;;;;5093476;28;20361;-66
2024/01/03 02:28:52;;;;;;;15.80;1.55;;;;;;;;;;5077911;28;20040;-66
2024/01/03 02:31:17;;;;;;;10.38;1.58;;;;;;;;;;5090146;28;20040;-68
2024/01/03 02:33:42;;;;;;;6.13;1.50;;;;;;;;;;5093105;28;20044;-66
2024/01/03 02:36:08;;;;;;;10.00;1.95;;;;;;;;;;5091190;28;20031;-66
2024/01/03 02:38:33;;;;;;;6.53;1.30;;;;;;;;;;5073592;28;20042;-67
2024/01/03 02:40:58;;;;;;;14.48;1.60;;;;;;;;;;5093331;28;20046;-66
2024/01/03 02:43:24;;;;;;;12.15;1.45;;;;;;;;;;5093643;28;20066;-66
2024/01/03 02:45:49;;;;;;;13.88;2.25;;;;;;;;;;5093526;28;20055;-66
2024/01/03 02:48:14;;;;;;;12.07;1.40;;;;;;;;;;5092657;28;20036;-66
2024/01/03 02:50:44;;;;;;;11.63;1.67;;;;;;;;;;5089971;28;20056;-66
2024/01/03 02:53:10;;;;;;;8.95;1.35;;;;;;;;;;5093646;28;20039;-66
2024/01/03 02:55:35;;;;;;;10.50;1.38;;;;;;;;;;5092807;28;20054;-66
2024/01/03 02:58:00;;;;;;;14.90;1.70;;;;;;;;;;5090988;28;20040;-66
2024/01/03 03:00:26;;;;;;;9.00;1.50;;;;;;;;;;5092751;28;20082;-66
2024/01/03 03:02:51;;;;;;;4.60;1.10;;;;;;;;;;5087714;28;20035;-66
2024/01/03 03:05:16;;;;;;;11.43;1.65;;;;;;;;;;5090333;28;20062;-67
2024/01/03 03:07:42;;;;;;;15.00;1.55;;;;;;;;;;5093419;28;20434;-66
2024/01/03 03:10:10;;;;;;;12.40;1.40;;;;;;;;;;5093185;28;20517;-66
2024/01/03 03:12:35;;;;;;;13.18;1.20;;;;;;;;;;5093224;28;20394;-65
2024/01/03 03:15:02;;;;;;;10.30;1.70;;;;;;;;;;5093110;28;20066;-66
2024/01/03 03:17:27;;;;;;;13.35;1.27;;;;;;;;;;5092870;28;20040;-66
2024/01/03 03:19:52;;;;;;;12.88;1.60;;;;;;;;;;5089036;28;20060;-66
2024/01/03 03:22:18;;;;;;;14.30;2.00;;;;;;;;;;5091807;28;20097;-67
2024/01/03 03:24:43;;;;;;;13.13;1.33;;;;;;;;;;5097997;28;20036;-66
2024/01/03 03:27:08;;;;;;;13.32;1.27;;;;;;;;;;5105270;28;20498;-65
2024/01/03 03:29:34;;;;;;;9.73;1.13;;;;;;;;;;5075829;28;20062;-66
2024/01/03 03:31:59;;;;;;;17.65;2.05;;;;;;;;;;5092474;28;20070;-66
2024/01/03 03:34:24;;;;;;;16.48;1.48;;;;;;;;;;5091964;28;20066;-66
2024/01/03 03:36:50;;;;;;;17.17;1.88;;;;;;;;;;5089835;28;20082;-66
2024/01/03 03:39:15;;;;;;;16.15;1.58;;;;;;;;;;5091321;28;20063;-65
2024/01/03 03:41:40;;;;;;;14.38;1.63;;;;;;;;;;5092497;28;20032;-67
2024/01/03 03:44:06;;;;;;;12.20;1.58;;;;;;;;;;5090664;28;20126;-65
2024/01/03 03:46:31;;;;;;;9.80;1.90;;;;;;;;;;5088090;28;20064;-66
2024/01/03 03:48:56;;;;;;;9.65;1.10;;;;;;;;;;5091005;28;20039;-66
2024/01/03 03:51:22;;;;;;;13.50;1.33;;;;;;;;;;5095745;28;20036;-66
2024/01/03 03:53:47;;;;;;;18.50;2.08;;;;;;;;;;5089930;28;20084;-66
2024/01/03 03:56:26;;;;;;;8.75;1.50;;;;;;;;;;5076901;28;20392;-67
2024/01/03 03:58:52;;;;;;;7.75;1.20;;;;;;;;;;5088389;28;20480;-66
2024/01/03 04:01:17;;;;;;;14.68;1.63;;;;;;;;;;5094973;28;20047;-66
2024/01/03 04:03:43;;;;;;;11.38;1.40;;;;;;;;;;5090947;28;20166;-66
2024/01/03 04:06:08;;;;;;;15.05;1.90;;;;;;;;;;5074603;28;20046;-66
2024/01/03 04:08:33;;;;;;;16.90;2.22;;;;;;;;;;5099878;28;20601;-66
2024/01/03 04:10:59;;;;;;;16.75;1.80;;;;;;;;;;5093157;28;20036;-67
2024/01/03 04:13:25;;;;;;;16.98;2.17;;;;;;;;;;5073663;28;20036;-67
2024/01/03 04:15:50;;;;;;;6.32;0.90;;;;;;;;;;5091631;28;20047;-66
2024/01/03 04:18:16;;;;;;;17.33;1.60;;;;;;;;;;5092103;28;20024;-66
2024/01/03 04:20:41;;;;;;;9.90;1.77;;;;;;;;;;5091612;28;20487;-66
2024/01/03 04:23:06;;;;;;;13.75;1.30;;;;;;;;;;5067650;28;20501;-66
2024/01/03 04:25:32;;;;;;;9.18;1.55;;;;;;;;;;5091401;28;20046;-66
2024/01/03 04:27:57;;;;;;;7.90;1.35;;;;;;;;;;5091077;28;20036;-67
2024/01/03 04:30:22;;;;;;;13.43;2.22;;;;;;;;;;5091088;28;20066;-66
2024/01/03 04:32:48;;;;;;;11.00;1.42;;;;;;;;;;5070582;28;20032;-66
2024/01/03 04:35:13;;;;;;;11.98;2.03;;;;;;;;;;5091225;28;20047;-67
2024/01/03 04:37:39;;;;;;;12.85;1.70;;;;;;;;;;5091251;28;20032;-66
2024/01/03 04:40:05;;;;;;;12.98;2.85;;;;;;;;;;5091473;28;20035;-66
2024/01/03 04:42:30;;;;;;;21.77;2.58;;;;;;;;;;5091062;28;20729;-66
2024/01/03 04:44:55;;;;;;;13.23;1.95;;;;;;;;;;5090220;28;20072;-66
2024/01/03 04:47:21;;;;;;;11.07;1.77;;;;;;;;;;5089144;28;20166;-66
2024/01/03 04:49:46;;;;;;;20.92;2.28;;;;;;;;;;5082301;28;20028;-66
2024/01/03 04:52:12;;;;;;;10.15;1.80;;;;;;;;;;5087051;28;20158;-66
2024/01/03 04:54:38;;;;;;;10.65;2.08;;;;;;;;;;5091306;28;20511;-67
2024/01/03 04:57:03;;;;;;;23.17;1.88;;;;;;;;;;5090584;28;20079;-67
2024/01/03 04:59:29;;;;;;;19.50;2.03;;;;;;;;;;5090719;28;20039;-67
2024/01/03 05:01:54;;;;;;;17.83;1.92;;;;;;;;;;5090009;28;20028;-66
2024/01/03 05:04:19;;;;;;;13.32;2.22;;;;;;;;;;5090198;28;20365;-67
2024/01/03 05:06:45;;;;;;;16.30;1.85;;;;;;;;;;5090779;28;20051;-66
2024/01/03 05:09:10;;;;;;;20.50;1.85;;;;;;;;;;5090632;28;20103;-66
2024/01/03 05:11:35;;;;;;;16.67;1.90;;;;;;;;;;5089229;28;20076;-66
2024/01/03 05:14:01;;;;;;;17.42;1.70;;;;;;;;;;5086711;28;20031;-66
2024/01/03 05:16:26;;;;;;;19.85;1.95;;;;;;;;;;5080385;28;20035;-67
2024/01/03 05:18:51;;;;;;;21.08;2.10;;;;;;;;;;5086818;28;20467;-66
2024/01/03 05:21:16;;;;;;;7.22;1.85;;;;;;;;;;5090831;28;20032;-67
2024/01/03 05:23:42;;;;;;;17.17;1.77;;;;;;;;;;5090639;28;20392;-66
2024/01/03 05:26:07;;;;;;;16.95;2.35;;;;;;;;;;5089217;28;20475;-66
2024/01/03 05:28:32;;;;;;;15.00;1.83;;;;;;;;;;5090210;28;20073;-66
2024/01/03 05:30:58;;;;;;;18.98;2.55;;;;;;;;;;5090879;28;20028;-66
2024/01/03 05:33:24;;;;;;;12.77;1.50;;;;;;;;;;5090174;28;20036;-66
2024/01/03 05:35:49;;;;;;;10.45;1.30;;;;;;;;;;5090208;28;20043;-65
2024/01/03 05:38:15;;;;;;;13.75;1.63;;;;;;;;;;5083926;28;20034;-66
2024/01/03 05:40:40;;;;;;;15.77;2.03;;;;;;;;;;5089643;28;20533;-67
2024/01/03 05:43:06;;;;;;;31.27;2.00;;;;;;;;;;5090293;28;20040;-66
2024/01/03 05:45:31;;;;;;;19.27;2.47;;;;;;;;;;5089763;28;20052;-65
2024/01/03 05:47:56;;;;;;;22.92;2.65;;;;;;;;;;5087965;28;20036;-66
2024/01/03 05:50:22;;;;;;;21.13;2.28;;;;;;;;;;5089557;28;20024;-66
2024/01/03 05:52:48;;;;;;;12.57;2.08;;;;;;;;;;5088875;28;20039;-65
2024/01/03 05:55:13;;;;;;;30.83;2.63;;;;;;;;;;5074112;28;20085;-66
2024/01/03 05:57:38;;;;;;;31.20;2.97;;;;;;;;;;5084740;28;20052;-67
2024/01/03 06:00:05;;;;;;;19.02;2.55;;;;;;;;;;5090640;28;20039;-66
2024/01/03 06:02:31;;;;;;;15.55;1.67;;;;;;;;;;5080729;28;20036;-67
2024/01/03 06:04:56;;;;;;;15.35;2.30;;;;;;;;;;5092649;28;20050;-66
2024/01/03 06:07:21;;;;;;;18.98;1.80;;;;;;;;;;5089135;28;20031;-67
2024/01/03 06:09:47;;;;;;;20.15;2.17;;;;;;;;;;5097728;28;20514;-66
2024/01/03 06:12:12;;;;;;;22.88;2.65;;;;;;;;;;5095747;28;20452;-66
2024/01/03 06:14:37;;;;;;;22.48;2.38;;;;;;;;;;5089400;28;20611;-66
2024/01/03 06:17:03;;;;;;;21.23;2.38;;;;;;;;;;5089344;28;20040;-65
2024/01/03 06:19:28;;;;;;;19.55;1.98;;;;;;;;;;5084314;28;20031;-66
2024/01/03 06:21:55;;;;;;;25.48;2.83;;;;;;;;;;5093651;28;20411;-66
2024/01/03 06:24:21;;;;;;;14.48;2.38;;;;;;;;;;5093382;28;20044;-66
2024/01/03 06:26:47;;;;;;;23.00;2.78;;;;;;;;;;5088964;28;20565;-66
2024/01/03 06:29:12;;;;;;;18.42;2.70;;;;;;;;;;5083929;28;20035;-66
2024/01/03 06:31:38;;;;;;;16.20;2.47;;;;;;;;;;5093332;28;20073;-66
2024/01/03 06:34:03;;;;;;;19.80;2.47;;;;;;;;;;5089606;28;20464;-66
2024/01/03 06:36:28;;;;;;;21.42;2.28;;;;;;;;;;5089434;28;20028;-66
2024/01/03 06:38:54;;;;;;;17.77;2.22;;;;;;;;;;5097570;28;20051;-66
2024/01/03 06:41:19;;;;;;;16.30;2.33;;;;;;;;;;5089641;28;20532;-67
2024/01/03 06:43:45;;;;;;;12.75;1.60;;;;;;;;;;5094781;28;20035;-66
2024/01/03 06:46:10;;;;;;;12.63;2.45;;;;;;;;;;5091435;28;20079;-66
2024/01/03 06:48:35;;;;;;;18.98;2.38;;;;;;;;;;5089288;28;20028;-66
2024/01/03 06:51:02;;;;;;;18.20;2.30;;;;;;;;;;5089183;28;20035;-66
2024/01/03 06:53:29;;;;;;;19.98;2.22;;;;;;;;;;5089706;28;20074;-67
2024/01/03 06:55:54;;;;;;;12.27;2.20;;;;;;;;;;5089571;28;20107;-66
2024/01/03 06:58:21;;;;;;;17.20;2.92;;;;;;;;;;5089190;28;20105;-67
2024/01/03 07:00:46;;;;;;;21.67;2.22;;;;;;;;;;5089825;28;20040;-66
2024/01/03 07:03:12;;;;;;;14.63;1.92;;;;;;;;;;5088943;28;20113;-67
2024/01/03 07:05:37;;;;;;;19.40;2.05;;;;;;;;;;5089043;28;20024;-67
2024/01/03 07:08:02;;;;;;;21.50;2.40;;;;;;;;;;5089392;28;20036;-66
2024/01/03 07:10:31;;;;;;;11.25;1.67;;;;;;;;;;5089241;28;20055;-67
2024/01/03 07:12:58;;;;;;;18.85;2.67;;;;;;;;;;5093590;28;20035;-66
2024/01/03 07:15:24;;;;;;;18.23;2.15;;;;;;;;;;5066520;28;20068;-67
2024/01/03 07:17:49;;;;;;;21.33;2.58;;;;;;;;;;5089754;28;20051;-67
2024/01/03 07:20:15;;;;;;;21.17;2.75;;;;;;;;;;5091970;28;20036;-67
2024/01/03 07:22:40;;;;;;;28.92;1.98;;;;;;;;;;5091964;28;20040;-66
2024/01/03 07:25:06;;;;;;;12.57;1.52;;;;;;;;;;5092685;28;20039;-66
2024/01/03 07:27:32;;;;;;;17.90;2.22;;;;;;;;;;5092466;28;20360;-67
2024/01/03 07:29:57;;;;;;;11.07;1.65;;;;;;;;;;5092863;28;20100;-67
2024/01/03 07:32:22;;;;;;;23.88;2.58;;;;;;;;;;5092301;28;20600;-67
2024/01/03 07:34:48;;;;;;;14.52;1.95;;;;;;;;;;5091456;28;20052;-66
2024/01/03 07:37:13;;;;;;;12.20;1.75;;;;;;;;;;5075024;28;20066;-66
2024/01/03 07:39:38;;;;;;;16.45;2.28;;;;;;;;;;5092554;28;20032;-66
2024/01/03 07:42:06;;;;;;;20.13;2.20;;;;;;;;;;5092308;28;20035;-67
2024/01/03 07:44:35;;;;;;;6.05;1.50;;;;;;;;;;5091802;28;20430;-67
2024/01/03 07:47:01;;;;;;;17.00;2.40;;;;;;;;;;5087562;28;20442;-67
2024/01/03 07:49:26;;;;;;;16.50;1.55;;;;;;;;;;5091900;28;20036;-66
2024/01/03 07:51:51;;;;;;;21.65;1.98;;;;;;;;;;5089521;28;20077;-67
2024/01/03 07:54:17;;;;;;;19.98;2.33;;;;;;;;;;5072527;28;20028;-67
2024/01/03 07:56:42;;;;;;;15.95;2.20;;;;;;;;;;5092204;28;20165;-66
2024/01/03 07:59:07;;;;;;;15.75;2.13;;;;;;;;;;5092390;28;20039;-67
2024/01/03 08:01:33;;;;;;;12.35;1.83;;;;;;;;;;5091377;28;20107;-67
2024/01/03 08:03:58;;;;;;;14.45;2.63;;;;;;;;;;5091020;28;20075;-67
2024/01/03 08:06:23;;;;;;;7.00;1.60;;;;;;;;;;5091732;28;20395;-67
2024/01/03 08:08:49;;;;;;;19.70;2.20;;;;;;;;;;5092196;28;20385;-67
2024/01/03 08:11:14;;;;;;;15.13;2.00;;;;;;;;;;5088810;28;20380;-66
2024/01/03 08:13:39;;;;;;;25.15;2.75;;;;;;;;;;5089419;28;20032;-66
2024/01/03 08:16:06;;;;;;;13.05;1.52;;;;;;;;;;5091846;28;20428;-66
2024/01/03 08:18:32;;;;;;;6.22;1.52;;;;;;;;;;5091397;28;20407;-66
2024/01/03 08:20:57;;;;;;;12.90;1.73;;;;;;;;;;5091318;28;20036;-66
2024/01/03 08:23:23;;;;;;;7.75;1.77;;;;;;;;;;5080515;28;20105;-67
2024/01/03 08:25:48;;;;;;;12.43;1.20;;;;;;;;;;5091432;28;20035;-67
2024/01/03 08:28:13;;;;;;;8.93;1.67;;;;;;;;;;5091457;28;20081;-67
2024/01/03 08:30:39;;;;;;;11.23;1.45;;;;;;;;;;5071824;28;20052;-66
2024/01/03 08:33:04;;;;;;;16.77;1.70;;;;;;;;;;5091346;28;20024;-67
2024/01/03 08:35:29;;;;;;;14.77;1.77;;;;;;;;;;5089805;28;20039;-66
2024/01/03 08:37:55;;;;;;;13.50;1.73;;;;;;;;;;5091446;28;20038;-68
2024/01/03 08:40:21;;;;;;;7.28;1.20;;;;;;;;;;5087412;28;20036;-67
2024/01/03 08:42:46;;;;;;;10.23;1.10;;;;;;;;;;5080191;28;20040;-67
2024/01/03 08:45:12;;;;;;;9.45;1.13;;;;;;;;;;5076018;28;20423;-67
2024/01/03 08:47:37;;;;;;;17.73;1.40;;;;;;;;;;5091202;28;20504;-67
2024/01/03 08:50:02;;;;;;;17.80;1.20;;;;;;;;;;5090940;28;20042;-67
2024/01/03 08:52:28;;;;;;;6.10;1.05;;;;;;;;;;5090611;28;20071;-67
2024/01/03 08:54:53;;;;;;;8.15;1.30;;;;;;;;;;5091011;28;20114;-67
2024/01/03 08:57:18;;;;;;;5.32;0.88;;;;;;;;;;5090745;28;20040;-67
2024/01/03 08:59:44;;;;;;;5.40;1.05;;;;;;;;;;5091473;28;20039;-67
2024/01/03 09:02:10;;;;;;;4.00;0.90;;;;;;;;;;5091184;28;20182;-67
2024/01/03 09:04:36;;;;;;;6.57;0.80;;;;;;;;;;5089450;28;20040;-67
2024/01/03 09:07:01;;;;;;;8.75;1.15;;;;;;;;;;5071885;28;20034;-67
2024/01/03 09:09:26;;;;;;;6.43;0.77;;;;;;;;;;5089454;28;20166;-67
2024/01/03 09:11:52;;;;;;;8.10;1.73;;;;;;;;;;5090618;28;20044;-67
2024/01/03 09:14:17;;;;;;;12.02;1.20;;;;;;;;;;5091859;28;20031;-67
2024/01/03 09:16:42;;;;;;;13.48;1.85;;;;;;;;;;5090040;28;21621;-66
2024/01/03 09:19:08;;;;;;;11.90;3.55;;;;;;;;;;5072616;28;20036;-67
2024/01/03 09:21:33;;;;;;;7.35;1.50;;;;;;;;;;5083492;28;20657;-67
2024/01/03 09:24:00;;;;;;;10.55;2.05;;;;;;;;;;5088988;28;20578;-67
2024/01/03 09:26:25;;;;;;;9.05;1.67;;;;;;;;;;5089766;28;20115;-67
2024/01/03 09:28:53;;;;;;;13.55;2.38;;;;;;;;;;5089209;28;20123;-67
2024/01/03 09:31:19;;;;;;;10.85;2.65;;;;;;;;;;5089668;28;20040;-68
2024/01/03 09:33:44;;;;;;;10.05;2.42;;;;;;;;;;5090088;28;20036;-68
2024/01/03 09:36:17;;;;;;;13.02;3.05;;;;;;;;;;5076817;28;20032;-68
2024/01/03 09:38:43;;;;;;;17.42;2.42;;;;;;;;;;5074436;28;20506;-68
2024/01/03 09:41:12;;;;;;;9.63;2.20;;;;;;;;;;5089654;28;20111;-67
2024/01/03 09:43:42;;;;;;;13.93;3.85;;;;;;;;;;5086507;28;20024;-67
2024/01/03 09:46:10;;;;;;;11.90;4.40;;;;;;;;;;5070525;28;20042;-67
2024/01/03 09:48:35;;;;;;;12.25;4.00;;;;;;;;;;5084866;28;20032;-67
2024/01/03 09:51:01;;;;;;;10.13;3.60;;;;;;;;;;5089713;28;20039;-67
2024/01/03 09:53:28;;;;;;;9.65;3.60;;;;;;;;;;5070748;28;20040;-68
2024/01/03 09:55:53;;;;;;;18.00;3.58;;;;;;;;;;5068003;28;20059;-68
2024/01/03 09:58:20;;;;;;;20.00;4.63;;;;;;;;;;5070870;28;20136;-68
2024/01/03 10:00:45;;;;;;;15.70;4.60;;;;;;;;;;5084019;28;20032;-67
2024/01/03 10:03:11;;;;;;;16.30;4.40;;;;;;;;;;5084641;28;20125;-67
2024/01/03 10:05:36;;;;;;;15.52;3.75;;;;;;;;;;5077376;28;20034;-68
2024/01/03 10:08:20;;;;;;;15.00;4.95;;;;;;;;;;5076074;28;20059;-68
2024/01/03 10:10:46;;;;;;;16.52;4.90;;;;;;;;;;5084411;28;20039;-68
2024/01/03 10:13:17;;;;;;;20.88;5.32;;;;;;;;;;5082774;28;20097;-67
2024/01/03 10:15:44;;;;;;;22.60;5.15;;;;;;;;;;5083911;28;20032;-67
2024/01/03 10:18:10;;;;;;;17.35;5.03;;;;;;;;;;5065987;28;20036;-67
2024/01/03 10:20:36;;;;;;;12.95;4.07;;;;;;;;;;5069030;28;20494;-67
2024/01/03 10:23:12;;;;;;;16.08;4.82;;;;;;;;;;5079343;28;20102;-67
2024/01/03 10:25:39;;;;;;;15.20;3.85;;;;;;;;;;5064405;28;20136;-68
2024/01/03 10:28:07;;;;;;;12.90;3.00;;;;;;;;;;5064639;28;20031;-67
2024/01/03 10:30:33;;;;;;;18.42;3.05;;;;;;;;;;5085003;28;20051;-68
2024/01/03 10:33:09;;;;;;;6.20;2.33;;;;;;;;;;5085275;28;20117;-67
2024/01/03 10:35:35;;;;;;;8.18;3.25;;;;;;;;;;5070596;28;20042;-68
2024/01/03 10:38:02;;;;;;;11.93;2.92;;;;;;;;;;5074762;28;20394;-68
2024/01/03 10:40:32;;;;;;;7.10;2.83;;;;;;;;;;5061445;28;20034;-68
2024/01/03 10:42:58;;;;;;;17.45;2.92;;;;;;;;;;5066053;28;20028;-68
2024/01/03 10:45:24;;;;;;;6.75;2.03;;;;;;;;;;5054676;28;20136;-67
2024/01/03 10:47:50;;;;;;;13.20;2.33;;;;;;;;;;5048627;28;20143;-67
2024/01/03 10:50:16;;;;;;;8.05;1.92;;;;;;;;;;5047091;28;20412;-67
2024/01/03 10:52:42;;;;;;;9.45;1.80;;;;;;;;;;5049648;28;20037;-67
2024/01/03 10:55:10;;;;;;;11.07;2.08;;;;;;;;;;5047983;28;20029;-67
2024/01/03 10:57:36;;;;;;;5.45;1.38;;;;;;;;;;5046696;28;20025;-67
2024/01/03 11:00:43;;;;;;;12.73;3.63;;;;;;;;;;5047435;28;20435;-67
2024/01/03 11:03:22;;;;;;;10.93;4.15;;;;;;;;;;5045717;28;20052;-67
2024/01/03 11:06:01;;;;;;;6.13;2.08;;;;;;;;;;5046311;28;20485;-66
2024/01/03 11:08:35;;;;;;;10.65;1.88;;;;;;;;;;5043012;28;20048;-67
2024/01/03 11:11:00;;;;;;;7.72;1.35;;;;;;;;;;5043757;28;20187;-67
2024/01/03 11:13:38;;;;;;;20.50;3.92;;;;;;;;;;5047567;28;20111;-67
2024/01/03 11:16:05;;;;;;;17.85;3.60;;;;;;;;;;5041250;28;20226;-67
2024/01/03 11:18:57;;;;;;;17.45;3.33;;;;;;;;;;5047289;28;20036;-67
2024/01/03 11:21:30;;;;;;;13.15;2.30;;;;;;;;;;5050116;28;20198;-67
2024/01/03 11:23:56;;;;;;;7.43;1.77;;;;;;;;;;5043899;28;20036;-67
2024/01/03 11:26:56;;;;;;;11.80;1.95;;;;;;;;;;5044742;28;20044;-67
2024/01/03 11:29:36;;;;;;;5.35;1.75;;;;;;;;;;5044948;28;20033;-67
2024/01/03 11:32:08;;;;;;;8.13;1.55;;;;;;;;;;5044649;28;20029;-67
2024/01/03 11:34:40;;;;;;;11.38;1.80;;;;;;;;;;5045870;28;20040;-67
2024/01/03 11:37:26;;;;;;;5.25;1.55;;;;;;;;;;5043434;28;20036;-66
2024/01/03 11:39:54;;;;;;;8.25;1.60;;;;;;;;;;5035470;28;20063;-67
2024/01/03 11:42:30;;;;;;;8.63;1.90;;;;;;;;;;5047745;28;20033;-67
2024/01/03 11:45:05;;;;;;;5.65;1.30;;;;;;;;;;5068287;28;20074;-67
2024/01/03 11:47:39;;;;;;;4.60;1.08;;;;;;;;;;5070108;28;20486;-67
2024/01/03 11:50:05;;;;;;;5.63;1.27;;;;;;;;;;5088128;28;20632;-67
2024/01/03 11:52:35;;;;;;;8.00;1.27;;;;;;;;;;5087439;28;20036;-67
2024/01/03 11:55:10;;;;;;;8.02;1.00;;;;;;;;;;5088336;28;20036;-67
2024/01/03 11:57:46;;;;;;;10.77;1.38;;;;;;;;;;5068769;28;20504;-67
2024/01/03 12:00:14;;;;;;;11.57;1.45;;;;;;;;;;5086577;28;20035;-67
2024/01/03 12:03:05;;;;;;;4.68;1.10;;;;;;;;;;5087380;28;20499;-68
2024/01/03 12:05:31;;;;;;;8.98;1.17;;;;;;;;;;5079750;28;20044;-67
2024/01/03 12:07:57;;;;;;;8.85;1.35;;;;;;;;;;5086335;28;20044;-68
2024/01/03 12:10:23;;;;;;;7.57;1.20;;;;;;;;;;5074329;28;20035;-67
2024/01/03 12:12:51;;;;;;;3.53;0.88;;;;;;;;;;5087712;28;20043;-68
2024/01/03 12:15:25;;;;;;;7.53;1.75;;;;;;;;;;5071068;28;20075;-67
2024/01/03 12:17:50;;;;;;;5.03;0.90;;;;;;;;;;5079768;28;20071;-67
2024/01/03 12:20:18;;;;;;;6.00;0.98;;;;;;;;;;5087052;28;20456;-68
2024/01/03 12:22:43;;;;;;;9.38;1.13;;;;;;;;;;5086608;28;20482;-67
2024/01/03 12:25:24;;;;;;;9.13;1.02;;;;;;;;;;5087656;28;20028;-67
2024/01/03 12:27:54;;;;;;;10.63;1.70;;;;;;;;;;5083513;28;20040;-67
2024/01/03 12:30:20;;;;;;;6.38;0.93;;;;;;;;;;5086447;28;20036;-67
2024/01/03 12:32:47;;;;;;;4.95;1.60;;;;;;;;;;5087225;28;20042;-67
2024/01/03 12:35:12;;;;;;;5.65;1.52;;;;;;;;;;5071525;28;20035;-68
2024/01/03 12:37:43;;;;;;;6.35;1.02;;;;;;;;;;5069464;28;20040;-66
2024/01/03 12:40:14;;;;;;;5.90;1.10;;;;;;;;;;5084088;28;20071;-67
2024/01/03 12:42:44;;;;;;;3.42;0.90;;;;;;;;;;5076884;28;20040;-67
2024/01/03 12:45:10;;;;;;;5.78;1.10;;;;;;;;;;5072891;28;20048;-67
2024/01/03 12:47:35;;;;;;;3.70;1.08;;;;;;;;;;5030168;28;20060;-67
2024/01/03 12:50:00;;;;;;;4.18;1.20;;;;;;;;;;5068314;28;20637;-67
2024/01/03 12:52:27;;;;;;;6.53;1.25;;;;;;;;;;5077922;28;20052;-67
2024/01/03 12:54:53;;;;;;;6.05;1.20;;;;;;;;;;5082181;28;20032;-67
2024/01/03 12:57:18;;;;;;;3.60;1.08;;;;;;;;;;5065976;28;20495;-67
2024/01/03 12:59:44;;;;;;;5.93;1.23;;;;;;;;;;5081730;28;20541;-67
2024/01/03 13:02:09;;;;;;;5.68;1.10;;;;;;;;;;5084366;28;20047;-67
2024/01/03 13:04:34;;;;;;;6.28;1.50;;;;;;;;;;5082662;28;20043;-67
2024/01/03 13:07:00;;;;;;;2.28;0.80;;;;;;;;;;5074674;28;20052;-68
2024/01/03 13:09:26;;;;;;;5.45;1.00;;;;;;;;;;5081748;28;20024;-67
2024/01/03 13:11:52;;;;;;;3.88;0.90;;;;;;;;;;5087322;28;20059;-67
2024/01/03 13:14:18;;;;;;;1.63;0.68;;;;;;;;;;5069257;28;20127;-67
2024/01/03 13:16:43;;;;;;;5.60;1.00;;;;;;;;;;5084959;28;20118;-67
2024/01/03 13:19:08;;;;;;;7.05;0.90;;;;;;;;;;5051289;28;20065;-67
2024/01/03 13:21:34;;;;;;;6.78;1.00;;;;;;;;;;5066853;28;20082;-67
2024/01/03 13:23:59;;;;;;;5.13;1.08;;;;;;;;;;5082953;28;20028;-68
2024/01/03 13:26:24;;;;;;;4.95;0.90;;;;;;;;;;5081441;28;20040;-68
2024/01/03 13:28:50;;;;;;;3.38;0.60;;;;;;;;;;5076719;28;20105;-67
2024/01/03 13:31:15;;;;;;;4.50;1.00;;;;;;;;;;5083569;28;20081;-67
2024/01/03 13:33:42;;;;;;;2.97;0.75;;;;;;;;;;5084914;28;20044;-67
2024/01/03 13:36:08;;;;;;;1.58;0.50;;;;;;;;;;5079928;28;20036;-68
2024/01/03 13:38:34;;;;;;;3.47;0.85;;;;;;;;;;5083655;28;20036;-67
2024/01/03 13:40:59;;;;;;;3.30;0.88;;;;;;;;;;5063941;28;20295;-67
2024/01/03 13:43:26;;;;;;;4.13;1.20;;;;;;;;;;5065839;28;20043;-67
2024/01/03 13:45:51;;;;;;;5.32;1.38;;;;;;;;;;5080304;28;20081;-67
2024/01/03 13:48:17;;;;;;;17.88;7.30;;;;;;;;;;5082134;28;20053;-67
2024/01/03 13:50:42;;;;;;;8.23;2.08;;;;;;;;;;5049850;28;20044;-67
2024/01/03 13:53:07;;;;;;;7.38;2.35;;;;;;;;;;5076753;28;20040;-67
2024/01/03 13:55:33;;;;;;;5.85;1.42;;;;;;;;;;5085186;28;20097;-67
2024/01/03 13:57:58;;;;;;;4.85;1.27;;;;;;;;;;5082468;28;20032;-67
2024/01/03 14:00:24;;;;;;;7.95;1.77;;;;;;;;;;5081590;28;20048;-67
2024/01/03 14:02:54;;;;;;;8.80;1.65;;;;;;;;;;5083698;28;20093;-67
2024/01/03 14:05:20;;;;;;;4.50;1.20;;;;;;;;;;5073542;28;20115;-67
2024/01/03 14:07:45;;;;;;;4.45;1.20;;;;;;;;;;5083718;28;20452;-67
2024/01/03 14:10:11;;;;;;;4.00;0.98;;;;;;;;;;5083992;28;20550;-67
2024/01/03 14:12:36;;;;;;;7.28;2.30;;;;;;;;;;5083613;28;20544;-67
2024/01/03 14:15:02;;;;;;;5.75;1.40;;;;;;;;;;5078107;28;20581;-67
2024/01/03 14:17:28;;;;;;;8.10;2.00;;;;;;;;;;5083979;28;20042;-67
2024/01/03 14:19:53;;;;;;;6.88;1.20;;;;;;;;;;5084128;28;20042;-67
2024/01/03 14:22:19;;;;;;;6.00;1.50;;;;;;;;;;5082463;28;20158;-68
2024/01/03 14:24:45;;;;;;;7.82;1.10;;;;;;;;;;5084991;28;20121;-67
2024/01/03 14:27:11;;;;;;;5.22;1.17;;;;;;;;;;5087256;28;20077;-68
2024/01/03 14:29:36;;;;;;;7.32;1.20;;;;;;;;;;5066299;28;20567;-67
2024/01/03 14:32:01;;;;;;;9.05;1.40;;;;;;;;;;5084857;28;20090;-67
2024/01/03 14:34:27;;;;;;;4.57;1.17;;;;;;;;;;5084573;28;20067;-67